Time;durP1;ratioP1;P1;durP2;ratioP2;P2;SDS_P1;SDS_P2;PMS_P1;PMS_P2;Temp;Humidity;BMP_temperature;BMP_pressure;BME280_temperature;BME280_humidity;BME280_pressure;Samples;Min_cycle;Max_cycle;Signal;HPM_P1;HPM_P2
2022/04/10 00:00:14;;;;;;;0.00;0.00;;;5.20;99.90;;;;;;5093223;28;20036;-77
2022/04/10 00:02:41;;;;;;;0.00;0.00;;;5.20;99.90;;;;;;5092613;28;20081;-77
2022/04/10 00:05:07;;;;;;;2.60;0.90;;;5.20;99.90;;;;;;5092713;28;20024;-77
2022/04/10 00:07:33;;;;;;;0.00;0.00;;;5.20;99.90;;;;;;5093296;28;20012;-77
2022/04/10 00:09:59;;;;;;;0.00;0.00;;;5.20;99.90;;;;;;5093013;28;20028;-77
2022/04/10 00:12:25;;;;;;;0.00;0.00;;;5.20;99.90;;;;;;5093304;28;20031;-77
2022/04/10 00:14:50;;;;;;;0.00;0.00;;;5.20;99.90;;;;;;5093077;28;20394;-75
2022/04/10 00:17:16;;;;;;;0.00;0.00;;;5.20;99.90;;;;;;5093320;28;20038;-77
2022/04/10 00:19:41;;;;;;;0.20;0.10;;;5.20;99.90;;;;;;5091916;28;20402;-77
2022/04/10 00:22:07;;;;;;;0.00;0.00;;;5.20;99.90;;;;;;5076203;28;20020;-77
2022/04/10 00:24:33;;;;;;;0.00;0.00;;;5.20;99.90;;;;;;5073005;28;20032;-75
2022/04/10 00:26:59;;;;;;;0.00;0.00;;;5.10;99.90;;;;;;5072890;28;20032;-76
2022/04/10 00:29:24;;;;;;;0.00;0.00;;;5.20;99.90;;;;;;5072845;28;20025;-77
2022/04/10 00:31:51;;;;;;;0.22;0.22;;;5.10;99.90;;;;;;5073055;28;20066;-75
2022/04/10 00:34:17;;;;;;;0.00;0.00;;;5.10;99.90;;;;;;5073246;28;20476;-77
2022/04/10 00:36:43;;;;;;;0.22;0.22;;;5.10;99.90;;;;;;5079791;28;20439;-77
2022/04/10 00:39:08;;;;;;;0.00;0.00;;;5.20;99.90;;;;;;5116595;28;20107;-77
2022/04/10 00:41:34;;;;;;;0.20;0.20;;;5.20;99.90;;;;;;5117603;28;20031;-77
2022/04/10 00:44:04;;;;;;;0.00;0.00;;;5.20;99.90;;;;;;5117475;28;20112;-75
2022/04/10 00:46:29;;;;;;;0.60;0.60;;;5.10;99.90;;;;;;5099442;28;20036;-75
2022/04/10 00:48:55;;;;;;;1.55;0.85;;;5.10;99.90;;;;;;5117100;28;20035;-77
2022/04/10 00:54:05;;;;;;;1.65;0.75;;;5.10;99.90;;;;;;5098412;28;20088;-77
2022/04/10 00:56:31;;;;;;;0.00;0.00;;;5.00;99.90;;;;;;5096442;28;20032;-77
2022/04/10 00:58:57;;;;;;;1.23;1.13;;;5.00;99.90;;;;;;5096765;28;20032;-77
2022/04/10 01:01:22;;;;;;;0.75;0.75;;;5.00;99.90;;;;;;5096826;28;20016;-76
2022/04/10 01:03:48;;;;;;;0.15;0.08;;;4.90;99.90;;;;;;5096047;28;20107;-77
2022/04/10 01:06:14;;;;;;;0.00;0.00;;;4.80;99.90;;;;;;5096789;28;20150;-77
2022/04/10 01:08:40;;;;;;;0.35;0.35;;;4.80;99.90;;;;;;5096479;28;20024;-77
2022/04/10 01:11:06;;;;;;;0.00;0.00;;;4.80;99.90;;;;;;5077774;28;20020;-75
2022/04/10 01:13:32;;;;;;;0.05;0.05;;;4.70;99.90;;;;;;5095116;28;20024;-74
2022/04/10 01:15:58;;;;;;;0.00;0.00;;;4.70;99.90;;;;;;5096488;28;20059;-76
2022/04/10 01:18:25;;;;;;;0.00;0.00;;;4.70;99.90;;;;;;5095465;28;20028;-77
2022/04/10 01:20:51;;;;;;;0.00;0.00;;;4.60;99.90;;;;;;5089085;28;20028;-75
2022/04/10 01:23:17;;;;;;;0.03;0.03;;;4.60;99.90;;;;;;5075947;28;20059;-75
2022/04/10 01:25:44;;;;;;;0.20;0.17;;;4.50;99.90;;;;;;5075772;28;20055;-74
2022/04/10 01:28:13;;;;;;;0.00;0.00;;;4.50;99.90;;;;;;5075893;28;20024;-75
2022/04/10 01:30:39;;;;;;;0.00;0.00;;;4.50;99.90;;;;;;5074908;28;20017;-74
2022/04/10 01:33:05;;;;;;;0.00;0.00;;;4.50;99.90;;;;;;5075439;28;20552;-75
2022/04/10 01:35:32;;;;;;;0.00;0.00;;;4.40;99.90;;;;;;5075698;28;20024;-74
2022/04/10 01:38:00;;;;;;;0.00;0.00;;;4.30;99.90;;;;;;5100323;28;20019;-75
2022/04/10 01:40:26;;;;;;;0.00;0.00;;;4.40;99.90;;;;;;5116076;28;20090;-74
2022/04/10 01:42:52;;;;;;;0.00;0.00;;;4.40;99.90;;;;;;5116240;28;20030;-76
2022/04/10 01:45:18;;;;;;;0.00;0.00;;;4.40;99.90;;;;;;5115382;28;20422;-74
2022/04/10 01:47:44;;;;;;;0.08;0.08;;;4.40;99.90;;;;;;5115041;28;20012;-74
2022/04/10 01:50:11;;;;;;;0.00;0.00;;;4.30;99.90;;;;;;5115619;28;20429;-74
2022/04/10 01:52:36;;;;;;;0.00;0.00;;;4.30;99.90;;;;;;5109596;28;20535;-74
2022/04/10 01:55:03;;;;;;;0.00;0.00;;;4.30;99.90;;;;;;5095567;28;20059;-75
2022/04/10 01:57:28;;;;;;;0.05;0.05;;;4.30;99.90;;;;;;5095757;28;20020;-74
2022/04/10 01:59:54;;;;;;;0.77;0.73;;;4.20;99.90;;;;;;5095671;28;20060;-74
2022/04/10 02:02:20;;;;;;;0.43;0.43;;;4.20;99.90;;;;;;5095550;28;20395;-75
2022/04/10 02:04:46;;;;;;;0.00;0.00;;;4.20;99.90;;;;;;5077339;28;20036;-74
2022/04/10 02:07:11;;;;;;;0.63;0.63;;;4.20;99.90;;;;;;5095054;28;20028;-75
2022/04/10 02:09:37;;;;;;;0.10;0.03;;;4.20;99.90;;;;;;5094831;28;20024;-74
2022/04/10 02:12:03;;;;;;;0.08;0.08;;;4.20;99.90;;;;;;5095151;28;20044;-75
2022/04/10 02:14:29;;;;;;;0.00;0.00;;;4.10;99.90;;;;;;5095180;28;20035;-77
2022/04/10 02:16:54;;;;;;;0.00;0.00;;;4.20;99.90;;;;;;5095462;28;20027;-74
2022/04/10 02:19:20;;;;;;;0.00;0.00;;;4.20;99.90;;;;;;5094781;28;20447;-76
2022/04/10 02:21:45;;;;;;;0.13;0.13;;;4.20;99.90;;;;;;5079954;28;20108;-75
2022/04/10 02:24:13;;;;;;;0.20;0.20;;;4.20;99.90;;;;;;5074710;28;20062;-77
2022/04/10 02:26:38;;;;;;;0.00;0.00;;;4.20;99.90;;;;;;5074569;28;20031;-74
2022/04/10 02:29:04;;;;;;;0.00;0.00;;;4.10;99.90;;;;;;5074545;28;20029;-76
2022/04/10 02:31:30;;;;;;;0.00;0.00;;;4.10;99.90;;;;;;5074949;28;20028;-74
2022/04/10 02:33:55;;;;;;;0.00;0.00;;;4.10;99.90;;;;;;5074400;28;20070;-77
2022/04/10 02:36:22;;;;;;;0.00;0.00;;;4.00;99.90;;;;;;5074200;28;20430;-74
2022/04/10 02:38:47;;;;;;;0.00;0.00;;;4.00;99.90;;;;;;5112946;28;20027;-74
2022/04/10 02:41:13;;;;;;;0.00;0.00;;;4.00;99.90;;;;;;5115524;28;20432;-75
2022/04/10 02:43:42;;;;;;;0.00;0.00;;;4.00;99.90;;;;;;5115046;28;20058;-76
2022/04/10 02:46:08;;;;;;;0.00;0.00;;;4.00;99.90;;;;;;5114843;28;20506;-74
2022/04/10 02:48:33;;;;;;;0.08;0.08;;;4.00;99.90;;;;;;5114815;28;20026;-74
2022/04/10 02:50:59;;;;;;;0.30;0.30;;;4.00;99.90;;;;;;5115156;28;20044;-76
2022/04/10 02:53:25;;;;;;;0.00;0.00;;;4.10;99.90;;;;;;5101574;28;20016;-76
2022/04/10 02:55:51;;;;;;;0.00;0.00;;;4.10;99.90;;;;;;5094272;28;20387;-74
2022/04/10 02:58:16;;;;;;;7.93;0.88;;;4.20;99.90;;;;;;5093424;28;20440;-74
2022/04/10 03:00:42;;;;;;;0.00;0.00;;;4.20;99.90;;;;;;5094273;28;20118;-76
2022/04/10 03:03:07;;;;;;;0.10;0.10;;;4.20;99.90;;;;;;5094013;28;20020;-74
2022/04/10 03:05:33;;;;;;;0.03;0.03;;;4.20;99.90;;;;;;5094312;28;20020;-74
2022/04/10 03:07:59;;;;;;;0.00;0.00;;;4.20;99.90;;;;;;5094942;28;20028;-74
2022/04/10 03:10:24;;;;;;;0.00;0.00;;;4.20;99.90;;;;;;5094121;28;20020;-74
2022/04/10 03:12:50;;;;;;;0.00;0.00;;;4.20;99.90;;;;;;5094187;28;20111;-74
2022/04/10 03:15:16;;;;;;;0.17;0.17;;;4.10;99.90;;;;;;5094239;28;20023;-76
2022/04/10 03:17:41;;;;;;;0.63;0.63;;;4.00;99.90;;;;;;5094192;28;20027;-74
2022/04/10 03:20:08;;;;;;;0.05;0.05;;;4.10;99.90;;;;;;5093344;28;20095;-74
2022/04/10 03:22:34;;;;;;;0.00;0.00;;;4.00;99.90;;;;;;5072948;28;20028;-75
2022/04/10 03:25:00;;;;;;;0.43;0.28;;;4.00;99.90;;;;;;5073690;28;20021;-76
2022/04/10 03:27:25;;;;;;;0.00;0.00;;;4.00;99.90;;;;;;5055430;28;20039;-74
2022/04/10 03:29:51;;;;;;;0.00;0.00;;;3.90;99.90;;;;;;5055586;28;20047;-74
2022/04/10 03:32:16;;;;;;;0.00;0.00;;;3.90;99.90;;;;;;5073119;28;20423;-76
2022/04/10 03:34:42;;;;;;;0.00;0.00;;;3.80;99.90;;;;;;5073138;28;20024;-76
2022/04/10 03:37:08;;;;;;;0.50;0.50;;;3.70;99.90;;;;;;5078564;28;20039;-74
2022/04/10 03:39:33;;;;;;;0.00;0.00;;;3.80;99.90;;;;;;5093647;28;20035;-74
2022/04/10 03:41:59;;;;;;;0.00;0.00;;;3.70;99.90;;;;;;5093910;28;20035;-77
2022/04/10 03:44:25;;;;;;;0.00;0.00;;;3.70;99.90;;;;;;5113767;28;20093;-76
2022/04/10 03:46:50;;;;;;;0.00;0.00;;;3.60;99.90;;;;;;5113529;28;20494;-76
2022/04/10 03:49:16;;;;;;;0.03;0.03;;;3.60;99.90;;;;;;5113514;28;20020;-76
2022/04/10 03:51:41;;;;;;;0.90;0.85;;;3.60;99.90;;;;;;5113718;28;20024;-74
2022/04/10 03:54:07;;;;;;;0.28;0.28;;;3.50;99.90;;;;;;5076498;28;20106;-74
2022/04/10 03:56:35;;;;;;;0.00;0.00;;;3.50;99.90;;;;;;5093095;28;20031;-74
2022/04/10 03:59:01;;;;;;;0.00;0.00;;;3.50;99.90;;;;;;5093429;28;20089;-76
2022/04/10 04:01:27;;;;;;;0.00;0.00;;;3.50;99.90;;;;;;5093618;28;20032;-77
2022/04/10 04:03:52;;;;;;;0.10;0.10;;;3.50;99.90;;;;;;5093010;28;20386;-74
2022/04/10 04:06:18;;;;;;;0.25;0.25;;;3.50;99.90;;;;;;5093429;28;20034;-76
2022/04/10 04:08:43;;;;;;;0.30;0.30;;;3.50;99.90;;;;;;5091761;28;20439;-76
2022/04/10 04:11:09;;;;;;;0.00;0.00;;;3.40;99.90;;;;;;5092993;28;20052;-76
2022/04/10 04:13:40;;;;;;;0.52;0.52;;;3.40;99.90;;;;;;5092499;28;20051;-76
2022/04/10 04:16:06;;;;;;;1.30;1.20;;;3.30;99.90;;;;;;5093160;28;20024;-74
2022/04/10 04:18:32;;;;;;;0.90;0.63;;;3.40;99.90;;;;;;5093090;28;20443;-77
2022/04/10 04:20:58;;;;;;;0.20;0.20;;;3.30;99.90;;;;;;5086222;28;20400;-74
2022/04/10 04:23:24;;;;;;;0.25;0.25;;;3.30;99.90;;;;;;5072497;28;20075;-77
2022/04/10 04:25:50;;;;;;;0.65;0.45;;;3.30;99.90;;;;;;5072581;28;20476;-76
2022/04/10 04:28:16;;;;;;;0.00;0.00;;;3.30;99.90;;;;;;5073118;28;20025;-77
2022/04/10 04:30:41;;;;;;;0.00;0.00;;;3.30;99.90;;;;;;5072819;28;20023;-77
2022/04/10 04:33:07;;;;;;;0.00;0.00;;;3.20;99.90;;;;;;5072714;28;20025;-74
2022/04/10 04:35:34;;;;;;;0.00;0.00;;;3.20;99.90;;;;;;5072857;28;20059;-76
2022/04/10 04:38:00;;;;;;;0.00;0.00;;;3.20;99.90;;;;;;5097828;28;20015;-75
2022/04/10 04:40:26;;;;;;;0.08;0.08;;;3.20;99.90;;;;;;5113281;28;20102;-76
2022/04/10 04:42:52;;;;;;;0.30;0.30;;;3.20;99.90;;;;;;5112718;28;20016;-76
2022/04/10 04:45:18;;;;;;;5.68;1.55;;;3.10;99.90;;;;;;5113037;28;20540;-76
2022/04/10 04:47:45;;;;;;;0.00;0.00;;;3.10;99.90;;;;;;5113294;28;20482;-76
2022/04/10 04:50:10;;;;;;;0.38;0.38;;;3.00;99.90;;;;;;5113335;28;20459;-74
2022/04/10 04:52:36;;;;;;;0.00;0.00;;;3.00;99.90;;;;;;5106699;28;20024;-77
2022/04/10 04:55:02;;;;;;;0.20;0.20;;;3.00;99.90;;;;;;5092712;28;20103;-75
2022/04/10 04:57:28;;;;;;;0.75;0.75;;;3.00;99.90;;;;;;5074637;28;20020;-77
2022/04/10 04:59:54;;;;;;;0.03;0.03;;;2.90;99.90;;;;;;5092344;28;20071;-77
2022/04/10 05:02:19;;;;;;;0.00;0.00;;;2.90;99.90;;;;;;5092747;28;20020;-77
2022/04/10 05:04:45;;;;;;;0.00;0.00;;;2.90;99.90;;;;;;5092395;28;20024;-76
2022/04/10 05:07:11;;;;;;;0.20;0.20;;;2.90;99.90;;;;;;5092862;28;20035;-77
2022/04/10 05:09:36;;;;;;;0.08;0.08;;;2.90;99.90;;;;;;5092571;28;20024;-76
2022/04/10 05:12:02;;;;;;;0.22;0.10;;;2.90;99.90;;;;;;5092617;28;20521;-75
2022/04/10 05:14:28;;;;;;;0.10;0.10;;;2.90;99.90;;;;;;5092617;28;20021;-77
2022/04/10 05:16:53;;;;;;;0.13;0.13;;;2.90;99.90;;;;;;5092096;28;20032;-77
2022/04/10 05:19:20;;;;;;;0.00;0.00;;;3.00;99.90;;;;;;5092553;28;20083;-74
2022/04/10 05:21:45;;;;;;;0.00;0.00;;;3.00;99.90;;;;;;5080333;28;20215;-76
2022/04/10 05:24:11;;;;;;;0.15;0.15;;;3.00;99.90;;;;;;5075272;28;20076;-76
2022/04/10 05:26:37;;;;;;;0.00;0.00;;;3.00;99.90;;;;;;5075663;28;20025;-76
2022/04/10 05:29:03;;;;;;;0.00;0.00;;;3.00;99.90;;;;;;5075846;28;20028;-74
2022/04/10 05:31:28;;;;;;;0.20;0.20;;;3.00;99.90;;;;;;5076112;28;20016;-74
2022/04/10 05:33:54;;;;;;;0.13;0.13;;;3.10;99.90;;;;;;5075981;28;20024;-77
2022/04/10 05:36:20;;;;;;;6.38;1.40;;;3.10;99.90;;;;;;5075370;28;20024;-76
2022/04/10 05:38:46;;;;;;;0.43;0.43;;;3.00;99.90;;;;;;5113313;28;20023;-76
2022/04/10 05:41:15;;;;;;;0.10;0.10;;;3.10;99.90;;;;;;5116518;28;20019;-76
2022/04/10 05:43:40;;;;;;;0.15;0.15;;;3.10;99.90;;;;;;5116134;28;20472;-77
2022/04/10 05:46:06;;;;;;;0.28;0.28;;;3.10;99.90;;;;;;5115927;28;20122;-74
2022/04/10 05:48:32;;;;;;;1.60;1.50;;;3.10;99.90;;;;;;5116111;28;20165;-76
2022/04/10 05:50:57;;;;;;;0.13;0.13;;;3.10;99.90;;;;;;5116113;28;20027;-76
2022/04/10 05:53:26;;;;;;;0.43;0.30;;;3.10;99.90;;;;;;5102572;28;20099;-76
2022/04/10 05:55:52;;;;;;;1.55;1.08;;;3.20;99.90;;;;;;5095366;28;20501;-76
2022/04/10 05:58:17;;;;;;;1.08;0.10;;;3.20;99.90;;;;;;5095500;28;20020;-77
2022/04/10 06:00:43;;;;;;;0.10;0.10;;;3.30;99.90;;;;;;5095547;28;20027;-75
2022/04/10 06:03:09;;;;;;;0.00;0.00;;;3.40;99.90;;;;;;5095153;28;20032;-76
2022/04/10 06:05:34;;;;;;;0.00;0.00;;;3.40;99.90;;;;;;5095605;28;20490;-76
2022/04/10 06:08:00;;;;;;;0.00;0.00;;;3.50;99.90;;;;;;5095410;28;20017;-75
2022/04/10 06:10:26;;;;;;;0.00;0.00;;;3.60;99.90;;;;;;5094995;28;20363;-76
2022/04/10 06:12:51;;;;;;;0.00;0.00;;;3.60;99.90;;;;;;5095322;28;20498;-77
2022/04/10 06:15:19;;;;;;;0.00;0.00;;;3.70;99.90;;;;;;5095272;28;20024;-74
2022/04/10 06:17:44;;;;;;;0.20;0.20;;;3.80;99.90;;;;;;5095283;28;20020;-74
2022/04/10 06:20:11;;;;;;;0.00;0.00;;;3.80;99.90;;;;;;5094892;28;20020;-76
2022/04/10 06:22:36;;;;;;;0.22;0.15;;;3.90;99.90;;;;;;5074492;28;20045;-75
2022/04/10 06:25:06;;;;;;;0.10;0.10;;;4.00;99.90;;;;;;5074178;28;20063;-74
2022/04/10 06:27:31;;;;;;;0.10;0.10;;;4.10;99.90;;;;;;5074141;28;20107;-77
2022/04/10 06:29:57;;;;;;;0.43;0.43;;;4.20;99.90;;;;;;5074796;28;20454;-75
2022/04/10 06:32:22;;;;;;;0.00;0.00;;;4.30;99.90;;;;;;5074243;28;20388;-74
2022/04/10 06:34:48;;;;;;;0.00;0.00;;;4.40;99.90;;;;;;5074146;28;20031;-76
2022/04/10 06:37:14;;;;;;;0.10;0.10;;;4.50;99.90;;;;;;5080476;28;20051;-74
2022/04/10 06:39:40;;;;;;;0.00;0.00;;;4.60;99.90;;;;;;5094753;28;20032;-75
2022/04/10 06:42:07;;;;;;;0.00;0.00;;;4.70;99.90;;;;;;5095112;28;20020;-75
2022/04/10 06:44:32;;;;;;;0.00;0.00;;;4.90;99.90;;;;;;5095020;28;20056;-74
2022/04/10 06:46:58;;;;;;;0.00;0.00;;;5.00;99.90;;;;;;5094601;28;20410;-75
2022/04/10 06:49:24;;;;;;;0.00;0.00;;;5.10;99.90;;;;;;5076229;28;20039;-74
2022/04/10 06:51:49;;;;;;;0.00;0.00;;;5.20;99.90;;;;;;5094394;28;20077;-74
2022/04/10 06:54:15;;;;;;;0.00;0.00;;;5.30;99.90;;;;;;5094301;28;20031;-77
2022/04/10 06:56:41;;;;;;;0.08;0.08;;;5.30;99.90;;;;;;5094290;28;20103;-75
2022/04/10 06:59:07;;;;;;;0.00;0.00;;;5.40;99.90;;;;;;5094028;28;20028;-75
2022/04/10 07:01:33;;;;;;;0.05;0.05;;;5.50;99.90;;;;;;5093508;28;20054;-75
2022/04/10 07:04:00;;;;;;;0.03;0.03;;;5.60;99.90;;;;;;5093475;28;20036;-75
2022/04/10 07:06:25;;;;;;;0.00;0.00;;;5.70;99.90;;;;;;5094335;28;20099;-75
2022/04/10 07:08:51;;;;;;;0.00;0.00;;;5.80;99.90;;;;;;5094401;28;20027;-77
2022/04/10 07:11:16;;;;;;;0.57;0.57;;;5.90;99.90;;;;;;5093878;28;20028;-77
2022/04/10 07:13:42;;;;;;;0.52;0.47;;;6.00;99.90;;;;;;5092990;28;20021;-74
2022/04/10 07:16:09;;;;;;;0.00;0.00;;;6.10;99.90;;;;;;5094098;28;20491;-77
2022/04/10 07:18:34;;;;;;;0.03;0.03;;;6.20;99.90;;;;;;5075034;28;20114;-76
2022/04/10 07:21:00;;;;;;;1.02;0.28;;;6.30;99.90;;;;;;5093915;28;20066;-76
2022/04/10 07:23:45;;;;;;;0.10;0.10;;;6.40;99.90;;;;;;5093773;28;20024;-75
2022/04/10 07:26:14;;;;;;;0.00;0.00;;;6.70;99.90;;;;;;5093428;28;20433;-77
2022/04/10 07:28:41;;;;;;;0.00;0.00;;;6.90;99.90;;;;;;5093906;28;20020;-75
2022/04/10 07:31:08;;;;;;;0.00;0.00;;;7.10;99.90;;;;;;5093814;28;20111;-75
2022/04/10 07:33:34;;;;;;;0.08;0.05;;;7.40;99.90;;;;;;5093366;28;20020;-77
2022/04/10 07:36:00;;;;;;;0.00;0.00;;;7.50;99.90;;;;;;5093520;28;20050;-77
2022/04/10 07:38:26;;;;;;;0.00;0.00;;;7.80;99.90;;;;;;5108991;28;20053;-75
2022/04/10 07:40:52;;;;;;;0.00;0.00;;;8.00;99.90;;;;;;5113812;28;20027;-77
2022/04/10 07:43:18;;;;;;;0.13;0.00;;;8.20;99.90;;;;;;5113554;28;20483;-78
2022/04/10 07:48:28;;;;;;;0.10;0.10;;;8.80;99.90;;;;;;5113564;28;20035;-77
2022/04/10 07:50:55;;;;;;;0.00;0.00;;;9.00;99.90;;;;;;5113803;28;20024;-77
2022/04/10 07:53:21;;;;;;;0.30;0.30;;;9.20;99.90;;;;;;5101239;28;20008;-75
2022/04/10 07:55:47;;;;;;;0.00;0.00;;;9.50;99.90;;;;;;5093381;28;20448;-79
2022/04/10 07:58:15;;;;;;;0.00;0.00;;;10.10;99.90;;;;;;5093182;28;20032;-78
2022/04/10 08:00:41;;;;;;;0.00;0.00;;;12.00;99.90;;;;;;5093332;28;20024;-78
2022/04/10 08:03:07;;;;;;;0.38;0.38;;;13.70;99.90;;;;;;5092550;28;20032;-78
2022/04/10 08:05:32;;;;;;;1.95;1.40;;;15.30;98.40;;;;;;5093600;28;20038;-75
2022/04/10 08:07:58;;;;;;;0.00;0.00;;;16.00;96.00;;;;;;5093565;28;20035;-75
2022/04/10 08:10:24;;;;;;;0.10;0.10;;;16.70;95.40;;;;;;5092791;28;20024;-75
2022/04/10 08:12:50;;;;;;;0.80;0.43;;;17.80;93.60;;;;;;5092391;28;20024;-76
2022/04/10 08:15:16;;;;;;;0.70;0.25;;;18.40;92.00;;;;;;5093444;28;20096;-76
2022/04/10 08:17:41;;;;;;;0.13;0.13;;;18.90;91.00;;;;;;5074822;28;20506;-79
2022/04/10 08:20:08;;;;;;;1.50;0.30;;;19.20;90.10;;;;;;5093021;28;20161;-76
2022/04/10 08:22:36;;;;;;;0.20;0.20;;;19.70;90.30;;;;;;5092875;28;20020;-78
2022/04/10 08:25:12;;;;;;;0.47;0.32;;;20.20;87.80;;;;;;5092590;28;20042;-78
2022/04/10 08:27:39;;;;;;;0.70;0.30;;;20.20;85.80;;;;;;5092703;28;20020;-78
2022/04/10 08:30:08;;;;;;;1.35;0.40;;;19.70;86.60;;;;;;5092509;28;20110;-77
2022/04/10 08:32:38;;;;;;;0.82;0.55;;;20.20;86.40;;;;;;5092754;28;20031;-76
2022/04/10 08:35:04;;;;;;;0.85;0.40;;;20.70;84.50;;;;;;5092765;28;20024;-78
2022/04/10 08:37:30;;;;;;;0.30;0.30;;;21.10;83.10;;;;;;5101330;28;20031;-76
2022/04/10 08:39:56;;;;;;;1.17;0.40;;;21.60;82.80;;;;;;5113224;28;20028;-78
2022/04/10 08:42:22;;;;;;;0.47;0.30;;;20.90;81.90;;;;;;5113355;28;20072;-76
2022/04/10 08:44:48;;;;;;;1.30;0.63;;;20.90;82.80;;;;;;5112902;28;20054;-76
2022/04/10 08:47:21;;;;;;;0.35;0.17;;;20.20;82.20;;;;;;5112596;28;20059;-76
2022/04/10 08:49:47;;;;;;;;;;;19.20;83.60;;;;;;5113718;28;20098;-75
2022/04/10 08:52:14;;;;;;;0.28;0.28;;;19.60;85.00;;;;;;5110716;28;19943;-76
2022/04/10 08:54:41;;;;;;;0.20;0.20;;;20.70;83.10;;;;;;5092800;28;20013;-76
2022/04/10 08:57:07;;;;;;;2.42;0.65;;;20.70;80.90;;;;;;5097049;28;20482;-76
2022/04/10 08:59:33;;;;;;;0.45;0.20;;;19.90;80.70;;;;;;5096587;28;20017;-76
2022/04/10 09:01:59;;;;;;;0.10;0.10;;;19.40;83.80;;;;;;5096429;28;20112;-78
2022/04/10 09:04:25;;;;;;;0.08;0.08;;;20.20;81.80;;;;;;5096547;28;20032;-78
2022/04/10 09:07:05;;;;;;;1.15;0.32;;;20.30;81.30;;;;;;5096930;28;20035;-75
2022/04/10 09:09:31;;;;;;;0.85;0.25;;;20.80;80.60;;;;;;5096999;28;20538;-75
2022/04/10 09:11:58;;;;;;;0.10;0.10;;;19.90;81.80;;;;;;5096090;28;20024;-76
2022/04/10 09:14:26;;;;;;;0.55;0.45;;;21.10;80.70;;;;;;5096172;28;20410;-76
2022/04/10 09:17:22;;;;;;;0.65;0.40;;;21.90;78.10;;;;;;5096282;28;20057;-77
2022/04/10 09:19:50;;;;;;;0.73;0.30;;;22.70;77.70;;;;;;5095741;28;20024;-77
2022/04/10 09:22:25;;;;;;;0.20;0.20;;;22.70;76.80;;;;;;5079856;28;20048;-73
2022/04/10 09:25:12;;;;;;;0.80;0.32;;;22.00;76.60;;;;;;5075401;28;20079;-74
2022/04/10 09:27:43;;;;;;;1.00;0.22;;;21.70;76.20;;;;;;5074752;28;20028;-74
2022/04/10 09:30:10;;;;;;;0.22;0.20;;;20.90;77.00;;;;;;5075635;28;20092;-76
2022/04/10 09:32:53;;;;;;;0.50;0.50;;;21.70;76.50;;;;;;5075585;28;20043;-74
2022/04/10 09:35:21;;;;;;;0.30;0.28;;;21.30;74.30;;;;;;5075570;28;20024;-74
2022/04/10 09:37:51;;;;;;;2.58;0.20;;;20.70;76.10;;;;;;5087356;28;20162;-79
2022/04/10 09:40:20;;;;;;;0.30;0.30;;;19.80;77.90;;;;;;5095661;28;20035;-76
2022/04/10 09:43:05;;;;;;;9.27;0.82;;;21.00;76.60;;;;;;5095293;28;20028;-76
2022/04/10 09:45:39;;;;;;;3.00;0.45;;;21.70;75.60;;;;;;5094786;28;20052;-74
2022/04/10 09:48:21;;;;;;;4.28;0.30;;;22.70;75.50;;;;;;5094838;28;20111;-74
2022/04/10 09:50:48;;;;;;;3.10;0.40;;;23.00;73.00;;;;;;5095293;28;20027;-76
2022/04/10 09:53:14;;;;;;;0.20;0.20;;;21.90;73.30;;;;;;5095143;28;20020;-74
2022/04/10 09:55:41;;;;;;;0.20;0.20;;;20.90;73.70;;;;;;5095086;28;20038;-74
2022/04/10 09:58:10;;;;;;;0.30;0.30;;;20.90;77.00;;;;;;5096527;28;20182;-76
2022/04/10 10:00:41;;;;;;;3.03;0.22;;;20.90;74.40;;;;;;5095005;28;20028;-74
2022/04/10 10:03:08;;;;;;;1.95;0.10;;;20.20;74.10;;;;;;5094631;28;20031;-76
2022/04/10 10:05:35;;;;;;;2.80;0.47;;;19.20;77.70;;;;;;5095678;28;20360;-76
2022/04/10 10:08:01;;;;;;;0.70;0.15;;;18.30;76.40;;;;;;5096004;28;20012;-79
2022/04/10 10:10:32;;;;;;;0.32;0.20;;;18.80;76.90;;;;;;5094798;28;20483;-78
2022/04/10 10:13:03;;;;;;;0.10;0.10;;;17.80;77.10;;;;;;5094194;28;20458;-78
2022/04/10 10:15:29;;;;;;;0.38;0.30;;;17.60;78.00;;;;;;5095345;28;20483;-78
2022/04/10 10:17:55;;;;;;;0.20;0.10;;;17.70;79.80;;;;;;5095864;28;20020;-78
2022/04/10 10:20:22;;;;;;;0.20;0.20;;;19.70;76.30;;;;;;5095192;28;20027;-76
2022/04/10 10:22:48;;;;;;;4.18;0.13;;;20.60;73.50;;;;;;5074890;28;20017;-78
2022/04/10 10:25:24;;;;;;;0.47;0.20;;;20.80;72.80;;;;;;5074959;28;20119;-78
2022/04/10 10:28:14;;;;;;;0.17;0.17;;;20.80;71.60;;;;;;5074791;28;20502;-76
2022/04/10 10:31:06;;;;;;;0.77;0.50;;;20.50;72.40;;;;;;5056678;28;20052;-79
2022/04/10 10:33:34;;;;;;;0.32;0.20;;;19.70;72.40;;;;;;5044692;28;20037;-76
2022/04/10 10:36:01;;;;;;;0.20;0.20;;;19.70;73.20;;;;;;5074565;28;20033;-78
2022/04/10 10:38:30;;;;;;;0.10;0.10;;;18.80;75.10;;;;;;5107963;28;20031;-79
2022/04/10 10:41:18;;;;;;;0.68;0.63;;;18.20;76.00;;;;;;5115627;28;20049;-79
2022/04/10 10:43:47;;;;;;;1.88;0.32;;;18.60;75.60;;;;;;5113262;28;20058;-78
2022/04/10 10:46:20;;;;;;;0.00;0.00;;;18.10;74.10;;;;;;5094676;28;20039;-78
2022/04/10 10:48:46;;;;;;;;;;;18.00;75.30;;;;;;5094115;28;20099;-79
2022/04/10 10:51:11;;;;;;;0.00;0.00;;;17.20;75.50;;;;;;5094945;28;20334;-78
2022/04/10 10:53:59;;;;;;;0.00;0.00;;;17.10;76.80;;;;;;5079897;28;20103;-78
2022/04/10 10:56:32;;;;;;;0.10;0.10;;;16.80;78.00;;;;;;5074132;28;20043;-78
2022/04/10 10:59:32;;;;;;;0.10;0.10;;;16.80;78.80;;;;;;5074057;28;20037;-78
2022/04/10 11:02:03;;;;;;;1.05;0.22;;;17.00;78.20;;;;;;5074184;28;20181;-76
2022/04/10 11:04:44;;;;;;;0.10;0.10;;;16.70;78.40;;;;;;5073591;28;20036;-79
2022/04/10 11:07:14;;;;;;;0.30;0.10;;;17.00;79.70;;;;;;5073608;28;20111;-77
2022/04/10 11:10:02;;;;;;;0.30;0.28;;;17.30;77.80;;;;;;5073652;28;20074;-77
2022/04/10 11:12:34;;;;;;;0.20;0.20;;;17.30;80.40;;;;;;5073925;28;20074;-77
2022/04/10 11:15:23;;;;;;;0.10;0.10;;;17.40;78.30;;;;;;5073853;28;20032;-76
2022/04/10 11:17:50;;;;;;;0.00;0.00;;;17.00;79.00;;;;;;5073584;28;20104;-76
2022/04/10 11:20:19;;;;;;;2.10;0.30;;;16.80;78.60;;;;;;5073746;28;20032;-77
2022/04/10 11:22:47;;;;;;;8.88;1.20;;;16.90;79.10;;;;;;5036320;28;20112;-79
2022/04/10 11:25:13;;;;;;;0.10;0.10;;;17.30;78.70;;;;;;5053522;28;20053;-76
2022/04/10 11:27:55;;;;;;;0.00;0.00;;;16.30;79.00;;;;;;5053048;28;20028;-76
2022/04/10 11:30:28;;;;;;;0.00;0.00;;;16.50;79.70;;;;;;5054160;28;20029;-73
2022/04/10 11:33:15;;;;;;;0.00;0.00;;;16.70;78.30;;;;;;5053537;28;20079;-78
2022/04/10 11:35:42;;;;;;;0.05;0.05;;;16.40;78.60;;;;;;5034828;28;20411;-76
2022/04/10 11:38:18;;;;;;;0.57;0.47;;;16.60;81.10;;;;;;5067153;28;20016;-76
2022/04/10 11:40:50;;;;;;;0.13;0.13;;;16.90;80.30;;;;;;5075793;28;20032;-78
2022/04/10 11:43:17;;;;;;;0.00;0.00;;;17.30;78.80;;;;;;5073032;28;20054;-79
2022/04/10 11:45:44;;;;;;;0.38;0.10;;;17.10;78.70;;;;;;5109438;28;20514;-76
2022/04/10 11:48:11;;;;;;;1.00;0.10;;;17.40;82.40;;;;;;5113617;28;20050;-78
2022/04/10 11:50:38;;;;;;;2.72;0.10;;;17.10;80.20;;;;;;5113973;28;20023;-77
2022/04/10 11:53:12;;;;;;;0.00;0.00;;;17.20;83.10;;;;;;5104211;28;20421;-79
2022/04/10 11:55:45;;;;;;;0.00;0.00;;;16.90;80.30;;;;;;5093994;28;20040;-75
2022/04/10 11:58:20;;;;;;;0.00;0.00;;;17.00;82.90;;;;;;5093608;28;20453;-75
2022/04/10 12:00:55;;;;;;;0.45;0.00;;;17.30;82.70;;;;;;5092870;28;20512;-78
2022/04/10 12:03:26;;;;;;;0.50;0.17;;;17.60;84.80;;;;;;5093244;28;20016;-75
2022/04/10 12:05:53;;;;;;;0.00;0.00;;;17.60;81.40;;;;;;5093689;28;20398;-75
2022/04/10 12:08:19;;;;;;;13.75;0.32;;;17.40;81.30;;;;;;5093672;28;20020;-75
2022/04/10 12:10:59;;;;;;;0.85;0.15;;;17.10;82.60;;;;;;5092897;28;20028;-75
2022/04/10 12:13:42;;;;;;;0.00;0.00;;;17.40;80.40;;;;;;5093087;28;20032;-75
2022/04/10 12:16:16;;;;;;;9.82;0.30;;;17.20;79.80;;;;;;5093311;28;20431;-78
2022/04/10 12:18:49;;;;;;;0.10;0.10;;;16.90;81.30;;;;;;5092120;28;20020;-76
2022/04/10 12:21:16;;;;;;;0.00;0.00;;;16.70;83.70;;;;;;5088227;28;20038;-76
2022/04/10 12:23:42;;;;;;;0.08;0.08;;;16.90;83.10;;;;;;5072820;28;20448;-75
2022/04/10 12:26:09;;;;;;;0.25;0.25;;;17.30;84.30;;;;;;5073187;28;20039;-75
2022/04/10 12:28:35;;;;;;;0.03;0.00;;;17.20;81.50;;;;;;5072181;28;20090;-75
2022/04/10 12:31:01;;;;;;;0.00;0.00;;;17.00;81.60;;;;;;5077928;28;20020;-78
2022/04/10 12:33:31;;;;;;;0.00;0.00;;;17.40;83.60;;;;;;5076752;28;20430;-75
2022/04/10 12:35:56;;;;;;;0.00;0.00;;;17.80;81.80;;;;;;5076971;28;20028;-79
2022/04/10 12:38:28;;;;;;;0.10;0.10;;;17.90;81.90;;;;;;5094052;28;20024;-79
2022/04/10 12:41:04;;;;;;;0.00;0.00;;;17.60;81.60;;;;;;5097546;28;20031;-78
2022/04/10 12:43:30;;;;;;;0.00;0.00;;;17.40;82.10;;;;;;5098028;28;20379;-76
2022/04/10 12:46:11;;;;;;;0.73;0.60;;;17.60;83.80;;;;;;5077734;28;20045;-76
2022/04/10 12:48:37;;;;;;;0.05;0.00;;;17.80;83.50;;;;;;5058402;28;20075;-75
2022/04/10 12:51:11;;;;;;;0.38;0.28;;;17.90;83.00;;;;;;5076477;28;20021;-78
2022/04/10 12:53:37;;;;;;;0.00;0.00;;;17.90;83.30;;;;;;5075655;28;20044;-75
2022/04/10 12:56:21;;;;;;;0.20;0.20;;;17.50;82.30;;;;;;5076668;28;20027;-75
2022/04/10 12:58:49;;;;;;;0.38;0.38;;;17.70;84.90;;;;;;5076627;28;20029;-76
2022/04/10 13:01:28;;;;;;;0.00;0.00;;;18.00;83.40;;;;;;5076675;28;20050;-77